LEST Airport Information

Runway Information
Runway 17 Length 10499 ft width 148 ft
Elevation 1170 ft Threshold 394 ft Heading 166
Runway 35 Length 10499 ft Width 148 ft
Elevation 1196 ft Threshold 0 ft Heading 346
Airport Frequencies
Type APP Name APP Frequency 118.2 MHZ
Type GND Name GND Frequency 121.7 MHZ
Type TWR Name TWR Frequency 118.75 MHZ
Airport Navaids
Type NDB Name Santiago Frequency 417 KHZ
Type VOR-DME Name Santiago Frequency 116400 KHZ
Airport Weather Information & NOTAM
ADDS - METARS form results

(2308 UTC 25 May 2022)
Data provider http://aviationweather.gov/metar/data/
 
METAR text: LEST 252300Z VRB02KT CAVOK 11/11 Q1027 NOSIG
Conditions at: LEST (SANTIAGO/LABACOL, ES) observed 2300 UTC 25 May 2022
Temperature: 11.0°C (52°F)
Dewpoint: 11.0°C (52°F) [RH = 100%]
Pressure (altimeter): 30.32 inches Hg (1027.0 mb)
Winds: variable direction winds at 2 MPH (2 knots; 1.0 m/s)
Visibility: 6 or more miles (10+ km)
Ceiling: ceiling and visibility are OK
Clouds: unknown
Weather: no significant weather observed at this time

METAR text: LEST 252230Z 36004KT 300V040 9999 FEW012 12/11 Q1028 NOSIG
Conditions at: LEST (SANTIAGO/LABACOL, ES) observed 2230 UTC 25 May 2022
Temperature: 12.0°C (54°F)
Dewpoint: 11.0°C (52°F) [RH = 94%]
Pressure (altimeter): 30.35 inches Hg (1028.0 mb)
Winds: from the N (360 degrees) at 5 MPH (4 knots; 2.1 m/s)
Visibility: 6 or more miles (10+ km)
Ceiling: at least 12,000 feet AGL
Clouds: few clouds at 1200 feet AGL
Weather: no significant weather observed at this time

Forecast for: LEST (SANTIAGO/LABACOL, ES)
Text: TAF LEST 251700Z 2518/2618 02008KT 9999 FEW025 TX25/2615Z TN09/2606Z
Forecast period: 1800 UTC 25 May 2022 to 1800 UTC 26 May 2022
Forecast type: FROM: standard forecast or significant change
Winds: from the NNE (20 degrees) at 9 MPH (8 knots; 4.1 m/s)
Visibility: 6 or more miles (10+ km)
Ceiling: at least 12,000 feet AGL
Clouds: few clouds at 2500 feet AGL
Weather: no significant weather forecast for this period
Text: PROB40
Forecast period: 0000 to 0800 UTC 26 May 2022
Forecast type: TEMPORARY: The following changes expected for less than half the time period
Visibility: 1.86 miles (2.99 km)
Ceiling: 500 feet AGL
Clouds: broken clouds at 500 feet AGL
Weather: BR BCFG  (mist, patches of fog)
Text: TEMPO 2600/2608 3000 BR BCFG BKN005
Forecast period: 0200 to 0700 UTC 26 May 2022
Forecast type: TEMPORARY: The following changes expected for less than half the time period
Visibility: 0.22 miles (0.35 km)
Ceiling: indefinite ceiling with vertical visibility of 100 feet AGL
Clouds: obscured sky
Weather: FG  (fog)